Terminal Aerodrome Forecast
Issued by NWS Newport/Morehead City, NC

Home | Current Version | Previous Version | Text Only | Print | Product List | Glossary Off
Versions: 1 2 3 4 5 6 7 8 9 10 11 12

000
FTUS42 KMHX 240523
TAFEWN
TAF
KEWN 240523Z 2406/2506 VRB03KT P6SM SCT070
     FM241400 27008KT P6SM SCT150
     FM250100 22004KT P6SM SKC=

USA.gov is the U.S. government's official web portal to all federal, state and local government web resources and services.